CheckWX is a tool to help pilots better visualize weather data.  It is not intended as a substitute for an official pre-flight weather briefing.

20:19:48 UTC

KOGB TAF
Orangeburg Municipal Airport
Orangeburg, South Carolina, USA
KOGB 291730Z 2918/3018 11005KT P6SM BKN100 FM300200 VRB03KT P6SM VCSH SCT025 BKN040 TEMPO 3004/3008 -RA BKN015 FM301500 VRB03KT P6SM FEW025 SCT250

Jan-29@
18:00 UTC

Jan-29 @ 18:00 UTC

Jan-30@
02:00 UTC

Jan-30 @ 02:00 UTC

KOGB 291730Z 2918/3018 11005KT P6SM BKN100
Wind
  • 110° at 5 KTS
Cloud Levels
  • Broken at 10,000' AGL

Jan-30@
02:00 UTC

Jan-30 @ 02:00 UTC

Jan-30@
15:00 UTC

Jan-30 @ 15:00 UTC

FM300200 VRB03KT P6SM VCSH SCT025 BKN040

From

From Standard forecast or significant change

Wind
  • Variable at 3 KTS
Cloud Levels
  • Scattered at 2,500' AGL
  • Broken at 4,000' AGL

Jan-30@
04:00 UTC

Jan-30 @ 04:00 UTC

Jan-30@
08:00 UTC

Jan-30 @ 08:00 UTC

TEMPO 3004/3008 -RA BKN015

Temporary

Temporary Changes expected for less than half the time period

Conditions
Light Rain
Cloud Levels
  • Broken at 1,500' AGL

Jan-30@
15:00 UTC

Jan-30 @ 15:00 UTC

Jan-30@
18:00 UTC

Jan-30 @ 18:00 UTC

FM301500 VRB03KT P6SM FEW025 SCT250

From

From Standard forecast or significant change

Wind
  • Variable at 3 KTS
Cloud Levels
  • Few at 2,500' AGL
  • Scattered at 25,000' AGL